sensor_id;sensor_type;location;lat;lon;timestamp;P1;durP1;ratioP1;P2;durP2;ratioP2
462;SDS011;218;51.902;9.542;2023-02-04T00:01:54;16.20;;;5.18;;
462;SDS011;218;51.902;9.542;2023-02-04T00:04:21;8.57;;;4.68;;
462;SDS011;218;51.902;9.542;2023-02-04T00:06:48;9.63;;;3.92;;
462;SDS011;218;51.902;9.542;2023-02-04T00:09:15;11.38;;;4.18;;
462;SDS011;218;51.902;9.542;2023-02-04T00:11:42;9.65;;;3.47;;
462;SDS011;218;51.902;9.542;2023-02-04T00:14:10;11.15;;;5.07;;
462;SDS011;218;51.902;9.542;2023-02-04T00:16:38;17.02;;;4.70;;
462;SDS011;218;51.902;9.542;2023-02-04T00:19:05;16.08;;;5.35;;
462;SDS011;218;51.902;9.542;2023-02-04T00:21:33;12.15;;;3.90;;
462;SDS011;218;51.902;9.542;2023-02-04T00:23:59;14.82;;;5.88;;
462;SDS011;218;51.902;9.542;2023-02-04T00:26:27;14.23;;;4.85;;
462;SDS011;218;51.902;9.542;2023-02-04T00:28:54;15.63;;;4.57;;
462;SDS011;218;51.902;9.542;2023-02-04T00:31:21;13.35;;;4.18;;
462;SDS011;218;51.902;9.542;2023-02-04T00:33:50;16.48;;;4.88;;
462;SDS011;218;51.902;9.542;2023-02-04T00:36:17;17.67;;;4.60;;
462;SDS011;218;51.902;9.542;2023-02-04T00:38:44;10.98;;;5.50;;
462;SDS011;218;51.902;9.542;2023-02-04T00:41:11;10.90;;;3.78;;
462;SDS011;218;51.902;9.542;2023-02-04T00:43:38;15.95;;;3.65;;
462;SDS011;218;51.902;9.542;2023-02-04T00:46:06;11.80;;;3.63;;
462;SDS011;218;51.902;9.542;2023-02-04T00:48:33;13.45;;;4.25;;
462;SDS011;218;51.902;9.542;2023-02-04T00:51:01;12.85;;;3.95;;
462;SDS011;218;51.902;9.542;2023-02-04T00:53:29;12.05;;;4.38;;
462;SDS011;218;51.902;9.542;2023-02-04T00:55:56;18.83;;;5.00;;
462;SDS011;218;51.902;9.542;2023-02-04T00:58:23;11.65;;;3.85;;
462;SDS011;218;51.902;9.542;2023-02-04T01:00:50;8.27;;;4.60;;
462;SDS011;218;51.902;9.542;2023-02-04T01:03:18;12.40;;;3.90;;
462;SDS011;218;51.902;9.542;2023-02-04T01:05:45;5.38;;;2.83;;
462;SDS011;218;51.902;9.542;2023-02-04T01:08:13;6.43;;;3.17;;
462;SDS011;218;51.902;9.542;2023-02-04T01:10:40;7.28;;;2.75;;
462;SDS011;218;51.902;9.542;2023-02-04T01:13:08;11.50;;;6.10;;
462;SDS011;218;51.902;9.542;2023-02-04T01:15:35;14.10;;;3.95;;
462;SDS011;218;51.902;9.542;2023-02-04T01:18:02;14.50;;;3.45;;
462;SDS011;218;51.902;9.542;2023-02-04T01:20:29;15.05;;;6.03;;
462;SDS011;218;51.902;9.542;2023-02-04T01:22:56;12.18;;;4.65;;
462;SDS011;218;51.902;9.542;2023-02-04T01:25:25;11.32;;;5.18;;
462;SDS011;218;51.902;9.542;2023-02-04T01:27:52;14.38;;;4.72;;
462;SDS011;218;51.902;9.542;2023-02-04T01:30:19;12.57;;;3.67;;
462;SDS011;218;51.902;9.542;2023-02-04T01:32:47;18.70;;;4.88;;
462;SDS011;218;51.902;9.542;2023-02-04T01:35:14;9.33;;;4.83;;
462;SDS011;218;51.902;9.542;2023-02-04T01:37:41;12.90;;;3.40;;
462;SDS011;218;51.902;9.542;2023-02-04T01:40:09;8.68;;;3.80;;
462;SDS011;218;51.902;9.542;2023-02-04T01:42:38;10.55;;;4.63;;
462;SDS011;218;51.902;9.542;2023-02-04T01:45:05;12.57;;;4.70;;
462;SDS011;218;51.902;9.542;2023-02-04T01:47:33;13.20;;;3.80;;
462;SDS011;218;51.902;9.542;2023-02-04T01:50:00;15.40;;;4.22;;
462;SDS011;218;51.902;9.542;2023-02-04T01:52:28;10.23;;;4.70;;
462;SDS011;218;51.902;9.542;2023-02-04T01:54:58;12.05;;;4.68;;
462;SDS011;218;51.902;9.542;2023-02-04T01:57:25;14.35;;;4.07;;
462;SDS011;218;51.902;9.542;2023-02-04T01:59:53;10.68;;;4.30;;
462;SDS011;218;51.902;9.542;2023-02-04T02:02:40;11.00;;;4.05;;
462;SDS011;218;51.902;9.542;2023-02-04T02:05:08;15.75;;;5.55;;
462;SDS011;218;51.902;9.542;2023-02-04T02:07:36;6.55;;;2.78;;
462;SDS011;218;51.902;9.542;2023-02-04T02:10:04;13.07;;;5.38;;
462;SDS011;218;51.902;9.542;2023-02-04T02:12:32;11.77;;;4.22;;
462;SDS011;218;51.902;9.542;2023-02-04T02:15:01;11.43;;;3.95;;
462;SDS011;218;51.902;9.542;2023-02-04T02:17:28;10.02;;;4.10;;
462;SDS011;218;51.902;9.542;2023-02-04T02:19:55;10.10;;;3.92;;
462;SDS011;218;51.902;9.542;2023-02-04T02:22:23;12.52;;;3.60;;
462;SDS011;218;51.902;9.542;2023-02-04T02:24:56;12.05;;;3.30;;
462;SDS011;218;51.902;9.542;2023-02-04T02:27:23;11.90;;;4.35;;
462;SDS011;218;51.902;9.542;2023-02-04T02:29:50;9.35;;;3.88;;
462;SDS011;218;51.902;9.542;2023-02-04T02:32:17;10.18;;;3.83;;
462;SDS011;218;51.902;9.542;2023-02-04T02:34:45;12.68;;;4.70;;
462;SDS011;218;51.902;9.542;2023-02-04T02:37:12;18.02;;;5.47;;
462;SDS011;218;51.902;9.542;2023-02-04T02:39:40;8.98;;;3.30;;
462;SDS011;218;51.902;9.542;2023-02-04T02:42:10;8.88;;;3.28;;
462;SDS011;218;51.902;9.542;2023-02-04T02:44:37;7.82;;;3.28;;
462;SDS011;218;51.902;9.542;2023-02-04T02:47:04;11.13;;;3.63;;
462;SDS011;218;51.902;9.542;2023-02-04T02:49:31;8.95;;;3.85;;
462;SDS011;218;51.902;9.542;2023-02-04T02:52:01;8.13;;;2.92;;
462;SDS011;218;51.902;9.542;2023-02-04T02:54:29;8.38;;;2.88;;
462;SDS011;218;51.902;9.542;2023-02-04T02:56:57;14.02;;;4.15;;
462;SDS011;218;51.902;9.542;2023-02-04T02:59:26;7.45;;;2.88;;
462;SDS011;218;51.902;9.542;2023-02-04T03:01:54;10.73;;;3.65;;
462;SDS011;218;51.902;9.542;2023-02-04T03:04:24;5.90;;;3.20;;
462;SDS011;218;51.902;9.542;2023-02-04T03:06:52;8.23;;;3.55;;
462;SDS011;218;51.902;9.542;2023-02-04T03:09:20;9.43;;;3.47;;
462;SDS011;218;51.902;9.542;2023-02-04T03:11:47;9.40;;;3.13;;
462;SDS011;218;51.902;9.542;2023-02-04T03:14:14;4.20;;;2.67;;
462;SDS011;218;51.902;9.542;2023-02-04T03:16:43;10.45;;;3.10;;
462;SDS011;218;51.902;9.542;2023-02-04T03:19:11;15.40;;;3.67;;
462;SDS011;218;51.902;9.542;2023-02-04T03:21:38;6.32;;;2.83;;
462;SDS011;218;51.902;9.542;2023-02-04T03:24:06;7.07;;;2.55;;
462;SDS011;218;51.902;9.542;2023-02-04T03:26:33;4.47;;;3.50;;
462;SDS011;218;51.902;9.542;2023-02-04T03:29:00;6.15;;;2.88;;
462;SDS011;218;51.902;9.542;2023-02-04T03:31:27;9.27;;;5.35;;
462;SDS011;218;51.902;9.542;2023-02-04T03:33:56;6.53;;;2.67;;
462;SDS011;218;51.902;9.542;2023-02-04T03:36:23;6.72;;;2.90;;
462;SDS011;218;51.902;9.542;2023-02-04T03:38:50;5.60;;;2.63;;
462;SDS011;218;51.902;9.542;2023-02-04T03:41:18;7.63;;;2.92;;
462;SDS011;218;51.902;9.542;2023-02-04T03:43:45;5.22;;;2.95;;
462;SDS011;218;51.902;9.542;2023-02-04T03:46:13;4.22;;;2.80;;
462;SDS011;218;51.902;9.542;2023-02-04T03:48:40;5.10;;;2.20;;
462;SDS011;218;51.902;9.542;2023-02-04T03:51:08;9.27;;;2.80;;
462;SDS011;218;51.902;9.542;2023-02-04T03:53:35;4.07;;;2.33;;
462;SDS011;218;51.902;9.542;2023-02-04T03:56:03;2.78;;;2.10;;
462;SDS011;218;51.902;9.542;2023-02-04T03:58:30;2.38;;;2.08;;
462;SDS011;218;51.902;9.542;2023-02-04T04:00:57;4.13;;;2.45;;
462;SDS011;218;51.902;9.542;2023-02-04T04:03:24;4.30;;;1.98;;
462;SDS011;218;51.902;9.542;2023-02-04T04:05:51;3.05;;;1.73;;
462;SDS011;218;51.902;9.542;2023-02-04T04:08:20;7.25;;;2.00;;
462;SDS011;218;51.902;9.542;2023-02-04T04:10:47;6.38;;;2.60;;
462;SDS011;218;51.902;9.542;2023-02-04T04:13:14;7.38;;;1.95;;
462;SDS011;218;51.902;9.542;2023-02-04T04:15:41;3.35;;;2.45;;
462;SDS011;218;51.902;9.542;2023-02-04T04:18:08;3.50;;;2.63;;
462;SDS011;218;51.902;9.542;2023-02-04T04:20:35;5.38;;;3.05;;
462;SDS011;218;51.902;9.542;2023-02-04T04:23:02;11.18;;;2.28;;
462;SDS011;218;51.902;9.542;2023-02-04T04:25:30;4.15;;;2.60;;
462;SDS011;218;51.902;9.542;2023-02-04T04:27:58;5.40;;;2.35;;
462;SDS011;218;51.902;9.542;2023-02-04T04:30:25;3.38;;;2.20;;
462;SDS011;218;51.902;9.542;2023-02-04T04:32:52;4.35;;;2.20;;
462;SDS011;218;51.902;9.542;2023-02-04T04:35:19;4.20;;;1.95;;
462;SDS011;218;51.902;9.542;2023-02-04T04:37:46;2.85;;;2.20;;
462;SDS011;218;51.902;9.542;2023-02-04T04:40:13;3.60;;;2.83;;
462;SDS011;218;51.902;9.542;2023-02-04T04:42:41;2.15;;;1.98;;
462;SDS011;218;51.902;9.542;2023-02-04T04:45:09;3.80;;;2.15;;
462;SDS011;218;51.902;9.542;2023-02-04T04:47:36;1.73;;;1.63;;
462;SDS011;218;51.902;9.542;2023-02-04T04:50:03;2.35;;;1.45;;
462;SDS011;218;51.902;9.542;2023-02-04T04:52:31;1.63;;;1.52;;
462;SDS011;218;51.902;9.542;2023-02-04T04:54:58;3.83;;;1.83;;
462;SDS011;218;51.902;9.542;2023-02-04T04:57:25;1.55;;;1.30;;
462;SDS011;218;51.902;9.542;2023-02-04T04:59:54;1.65;;;1.55;;
462;SDS011;218;51.902;9.542;2023-02-04T05:02:21;1.10;;;1.10;;
462;SDS011;218;51.902;9.542;2023-02-04T05:04:49;1.80;;;1.30;;
462;SDS011;218;51.902;9.542;2023-02-04T05:07:16;1.10;;;1.10;;
462;SDS011;218;51.902;9.542;2023-02-04T05:09:43;1.60;;;1.50;;
462;SDS011;218;51.902;9.542;2023-02-04T05:12:10;1.45;;;1.35;;
462;SDS011;218;51.902;9.542;2023-02-04T05:14:37;2.35;;;1.25;;
462;SDS011;218;51.902;9.542;2023-02-04T05:17:06;1.42;;;1.33;;
462;SDS011;218;51.902;9.542;2023-02-04T05:19:32;1.20;;;1.10;;
462;SDS011;218;51.902;9.542;2023-02-04T05:22:00;1.35;;;1.13;;
462;SDS011;218;51.902;9.542;2023-02-04T05:24:27;1.60;;;1.50;;
462;SDS011;218;51.902;9.542;2023-02-04T05:26:54;1.50;;;1.40;;
462;SDS011;218;51.902;9.542;2023-02-04T05:29:21;1.30;;;1.20;;
462;SDS011;218;51.902;9.542;2023-02-04T05:31:48;1.30;;;1.20;;
462;SDS011;218;51.902;9.542;2023-02-04T05:34:16;1.30;;;1.20;;
462;SDS011;218;51.902;9.542;2023-02-04T05:36:43;1.58;;;1.48;;
462;SDS011;218;51.902;9.542;2023-02-04T05:39:10;1.40;;;1.13;;
462;SDS011;218;51.902;9.542;2023-02-04T05:41:37;1.60;;;1.50;;
462;SDS011;218;51.902;9.542;2023-02-04T05:44:04;1.35;;;1.25;;
462;SDS011;218;51.902;9.542;2023-02-04T05:46:31;1.08;;;0.90;;
462;SDS011;218;51.902;9.542;2023-02-04T05:48:58;1.40;;;1.30;;
462;SDS011;218;51.902;9.542;2023-02-04T05:51:27;2.72;;;1.23;;
462;SDS011;218;51.902;9.542;2023-02-04T05:53:54;0.95;;;0.95;;
462;SDS011;218;51.902;9.542;2023-02-04T05:56:20;1.17;;;1.17;;
462;SDS011;218;51.902;9.542;2023-02-04T05:58:49;1.35;;;1.35;;
462;SDS011;218;51.902;9.542;2023-02-04T06:01:16;1.10;;;1.10;;
462;SDS011;218;51.902;9.542;2023-02-04T06:03:43;1.65;;;1.40;;
462;SDS011;218;51.902;9.542;2023-02-04T06:06:10;1.23;;;1.13;;
462;SDS011;218;51.902;9.542;2023-02-04T06:08:39;1.20;;;1.20;;
462;SDS011;218;51.902;9.542;2023-02-04T06:11:06;1.63;;;1.33;;
462;SDS011;218;51.902;9.542;2023-02-04T06:13:33;1.60;;;1.10;;
462;SDS011;218;51.902;9.542;2023-02-04T06:16:00;2.13;;;1.00;;
462;SDS011;218;51.902;9.542;2023-02-04T06:18:27;1.23;;;1.20;;
462;SDS011;218;51.902;9.542;2023-02-04T06:20:54;1.50;;;1.40;;
462;SDS011;218;51.902;9.542;2023-02-04T06:23:21;1.08;;;0.98;;
462;SDS011;218;51.902;9.542;2023-02-04T06:25:50;2.35;;;1.50;;
462;SDS011;218;51.902;9.542;2023-02-04T06:28:17;0.90;;;0.90;;
462;SDS011;218;51.902;9.542;2023-02-04T06:30:44;1.30;;;1.20;;
462;SDS011;218;51.902;9.542;2023-02-04T06:33:11;1.95;;;1.10;;
462;SDS011;218;51.902;9.542;2023-02-04T06:35:38;1.10;;;1.10;;
462;SDS011;218;51.902;9.542;2023-02-04T06:38:05;1.08;;;1.08;;
462;SDS011;218;51.902;9.542;2023-02-04T06:40:32;0.80;;;0.80;;
462;SDS011;218;51.902;9.542;2023-02-04T06:43:01;0.73;;;0.73;;
462;SDS011;218;51.902;9.542;2023-02-04T06:45:28;1.00;;;1.00;;
462;SDS011;218;51.902;9.542;2023-02-04T06:47:55;1.35;;;0.90;;
462;SDS011;218;51.902;9.542;2023-02-04T06:50:22;1.00;;;1.00;;
462;SDS011;218;51.902;9.542;2023-02-04T06:52:49;1.55;;;1.00;;
462;SDS011;218;51.902;9.542;2023-02-04T06:55:16;1.42;;;0.85;;
462;SDS011;218;51.902;9.542;2023-02-04T06:57:43;1.30;;;1.17;;
462;SDS011;218;51.902;9.542;2023-02-04T07:00:12;3.00;;;1.52;;
462;SDS011;218;51.902;9.542;2023-02-04T07:02:39;0.85;;;0.85;;
462;SDS011;218;51.902;9.542;2023-02-04T07:05:06;1.10;;;0.98;;
462;SDS011;218;51.902;9.542;2023-02-04T07:07:34;1.25;;;1.08;;
462;SDS011;218;51.902;9.542;2023-02-04T07:10:01;1.13;;;0.90;;
462;SDS011;218;51.902;9.542;2023-02-04T07:12:28;1.92;;;1.10;;
462;SDS011;218;51.902;9.542;2023-02-04T07:14:55;1.25;;;1.15;;
462;SDS011;218;51.902;9.542;2023-02-04T07:17:23;1.25;;;1.10;;
462;SDS011;218;51.902;9.542;2023-02-04T07:19:50;1.30;;;1.20;;
462;SDS011;218;51.902;9.542;2023-02-04T07:22:17;1.25;;;1.15;;
462;SDS011;218;51.902;9.542;2023-02-04T07:24:44;0.80;;;0.80;;
462;SDS011;218;51.902;9.542;2023-02-04T07:27:11;1.88;;;1.75;;
462;SDS011;218;51.902;9.542;2023-02-04T07:29:38;2.65;;;2.55;;
462;SDS011;218;51.902;9.542;2023-02-04T07:32:05;5.30;;;4.15;;
462;SDS011;218;51.902;9.542;2023-02-04T07:34:33;3.47;;;3.17;;
462;SDS011;218;51.902;9.542;2023-02-04T07:37:00;3.90;;;3.60;;
462;SDS011;218;51.902;9.542;2023-02-04T07:39:27;5.38;;;4.85;;
462;SDS011;218;51.902;9.542;2023-02-04T07:41:53;4.40;;;4.00;;
462;SDS011;218;51.902;9.542;2023-02-04T07:44:20;3.97;;;3.58;;
462;SDS011;218;51.902;9.542;2023-02-04T07:46:47;4.80;;;4.20;;
462;SDS011;218;51.902;9.542;2023-02-04T07:49:14;3.40;;;3.20;;
462;SDS011;218;51.902;9.542;2023-02-04T07:51:42;3.83;;;3.47;;
462;SDS011;218;51.902;9.542;2023-02-04T07:54:09;4.28;;;3.88;;
462;SDS011;218;51.902;9.542;2023-02-04T07:56:36;9.60;;;8.73;;
462;SDS011;218;51.902;9.542;2023-02-04T07:59:03;8.65;;;7.95;;
462;SDS011;218;51.902;9.542;2023-02-04T08:01:30;7.60;;;6.80;;
462;SDS011;218;51.902;9.542;2023-02-04T08:03:57;7.68;;;7.00;;
462;SDS011;218;51.902;9.542;2023-02-04T08:06:24;5.85;;;5.20;;
462;SDS011;218;51.902;9.542;2023-02-04T08:08:52;3.25;;;3.00;;
462;SDS011;218;51.902;9.542;2023-02-04T08:11:19;4.13;;;2.67;;
462;SDS011;218;51.902;9.542;2023-02-04T08:13:46;2.55;;;2.20;;
462;SDS011;218;51.902;9.542;2023-02-04T08:16:12;4.50;;;2.80;;
462;SDS011;218;51.902;9.542;2023-02-04T08:18:39;5.75;;;3.28;;
462;SDS011;218;51.902;9.542;2023-02-04T08:21:06;4.65;;;2.95;;
462;SDS011;218;51.902;9.542;2023-02-04T08:23:33;3.38;;;3.00;;
462;SDS011;218;51.902;9.542;2023-02-04T08:26:06;2.63;;;2.40;;
462;SDS011;218;51.902;9.542;2023-02-04T08:28:34;3.17;;;1.70;;
462;SDS011;218;51.902;9.542;2023-02-04T08:31:01;4.10;;;1.60;;
462;SDS011;218;51.902;9.542;2023-02-04T08:33:27;2.08;;;1.90;;
462;SDS011;218;51.902;9.542;2023-02-04T08:35:54;1.83;;;1.52;;
462;SDS011;218;51.902;9.542;2023-02-04T08:38:21;1.60;;;1.50;;
462;SDS011;218;51.902;9.542;2023-02-04T08:40:48;1.60;;;1.50;;
462;SDS011;218;51.902;9.542;2023-02-04T08:43:16;1.55;;;1.35;;
462;SDS011;218;51.902;9.542;2023-02-04T08:45:43;3.35;;;1.85;;
462;SDS011;218;51.902;9.542;2023-02-04T08:48:10;2.33;;;1.88;;
462;SDS011;218;51.902;9.542;2023-02-04T08:50:37;2.15;;;2.05;;
462;SDS011;218;51.902;9.542;2023-02-04T08:53:04;7.30;;;2.22;;
462;SDS011;218;51.902;9.542;2023-02-04T08:55:31;1.95;;;1.85;;
462;SDS011;218;51.902;9.542;2023-02-04T08:57:58;2.22;;;2.13;;
462;SDS011;218;51.902;9.542;2023-02-04T09:00:26;2.75;;;2.55;;
462;SDS011;218;51.902;9.542;2023-02-04T09:02:54;3.80;;;2.55;;
462;SDS011;218;51.902;9.542;2023-02-04T09:05:21;2.80;;;2.60;;
462;SDS011;218;51.902;9.542;2023-02-04T09:07:48;2.50;;;2.30;;
462;SDS011;218;51.902;9.542;2023-02-04T09:10:15;2.55;;;2.35;;
462;SDS011;218;51.902;9.542;2023-02-04T09:12:42;2.72;;;2.53;;
462;SDS011;218;51.902;9.542;2023-02-04T09:15:09;2.75;;;2.47;;
462;SDS011;218;51.902;9.542;2023-02-04T09:17:37;3.00;;;2.80;;
462;SDS011;218;51.902;9.542;2023-02-04T09:20:06;2.38;;;2.20;;
462;SDS011;218;51.902;9.542;2023-02-04T09:22:33;2.50;;;2.15;;
462;SDS011;218;51.902;9.542;2023-02-04T09:25:01;2.85;;;2.30;;
462;SDS011;218;51.902;9.542;2023-02-04T09:27:29;2.83;;;2.63;;
462;SDS011;218;51.902;9.542;2023-02-04T09:29:56;3.40;;;3.10;;
462;SDS011;218;51.902;9.542;2023-02-04T09:32:22;2.75;;;2.40;;
462;SDS011;218;51.902;9.542;2023-02-04T09:34:51;3.53;;;1.88;;
462;SDS011;218;51.902;9.542;2023-02-04T09:37:18;2.92;;;2.17;;
462;SDS011;218;51.902;9.542;2023-02-04T09:39:45;3.03;;;2.25;;
462;SDS011;218;51.902;9.542;2023-02-04T09:42:12;2.42;;;2.22;;
462;SDS011;218;51.902;9.542;2023-02-04T09:44:41;2.50;;;1.95;;
462;SDS011;218;51.902;9.542;2023-02-04T09:47:09;3.15;;;2.50;;
462;SDS011;218;51.902;9.542;2023-02-04T09:49:39;3.13;;;2.13;;
462;SDS011;218;51.902;9.542;2023-02-04T09:52:10;2.65;;;1.90;;
462;SDS011;218;51.902;9.542;2023-02-04T09:54:37;5.47;;;1.75;;
462;SDS011;218;51.902;9.542;2023-02-04T09:57:07;2.03;;;1.85;;
462;SDS011;218;51.902;9.542;2023-02-04T09:59:40;1.83;;;1.73;;
462;SDS011;218;51.902;9.542;2023-02-04T10:02:11;2.83;;;2.63;;
462;SDS011;218;51.902;9.542;2023-02-04T10:04:41;2.47;;;2.15;;
462;SDS011;218;51.902;9.542;2023-02-04T10:07:11;2.45;;;2.25;;
462;SDS011;218;51.902;9.542;2023-02-04T10:09:38;2.65;;;2.45;;
462;SDS011;218;51.902;9.542;2023-02-04T10:12:06;2.15;;;2.05;;
462;SDS011;218;51.902;9.542;2023-02-04T10:14:33;1.77;;;1.67;;
462;SDS011;218;51.902;9.542;2023-02-04T10:17:00;1.75;;;1.65;;
462;SDS011;218;51.902;9.542;2023-02-04T10:19:28;2.42;;;1.67;;
462;SDS011;218;51.902;9.542;2023-02-04T10:21:56;1.77;;;1.67;;
462;SDS011;218;51.902;9.542;2023-02-04T10:24:25;1.40;;;1.30;;
462;SDS011;218;51.902;9.542;2023-02-04T10:27:05;2.22;;;1.83;;
462;SDS011;218;51.902;9.542;2023-02-04T10:29:32;4.28;;;2.30;;
462;SDS011;218;51.902;9.542;2023-02-04T10:31:59;1.83;;;1.73;;
462;SDS011;218;51.902;9.542;2023-02-04T10:34:31;2.20;;;2.08;;
462;SDS011;218;51.902;9.542;2023-02-04T10:36:58;3.47;;;2.97;;
462;SDS011;218;51.902;9.542;2023-02-04T10:39:28;2.17;;;2.08;;
462;SDS011;218;51.902;9.542;2023-02-04T10:41:56;2.33;;;2.00;;
462;SDS011;218;51.902;9.542;2023-02-04T10:44:25;2.05;;;1.95;;
462;SDS011;218;51.902;9.542;2023-02-04T10:46:59;3.10;;;1.92;;
462;SDS011;218;51.902;9.542;2023-02-04T10:49:27;2.05;;;1.95;;
462;SDS011;218;51.902;9.542;2023-02-04T10:51:54;2.65;;;2.33;;
462;SDS011;218;51.902;9.542;2023-02-04T10:54:22;4.75;;;2.65;;
462;SDS011;218;51.902;9.542;2023-02-04T10:56:58;2.00;;;1.90;;
462;SDS011;218;51.902;9.542;2023-02-04T10:59:26;2.40;;;2.20;;
462;SDS011;218;51.902;9.542;2023-02-04T11:01:54;2.33;;;2.22;;
462;SDS011;218;51.902;9.542;2023-02-04T11:04:21;3.72;;;2.72;;
462;SDS011;218;51.902;9.542;2023-02-04T11:06:49;5.60;;;5.10;;
462;SDS011;218;51.902;9.542;2023-02-04T11:09:17;16.15;;;12.23;;
462;SDS011;218;51.902;9.542;2023-02-04T11:11:45;13.18;;;11.88;;
462;SDS011;218;51.902;9.542;2023-02-04T11:14:27;11.32;;;10.30;;
462;SDS011;218;51.902;9.542;2023-02-04T11:16:55;6.15;;;5.75;;
462;SDS011;218;51.902;9.542;2023-02-04T11:19:32;3.30;;;3.05;;
462;SDS011;218;51.902;9.542;2023-02-04T11:22:07;2.78;;;2.58;;
462;SDS011;218;51.902;9.542;2023-02-04T11:24:47;3.65;;;3.45;;
462;SDS011;218;51.902;9.542;2023-02-04T11:27:19;3.58;;;3.20;;
462;SDS011;218;51.902;9.542;2023-02-04T11:29:48;4.28;;;3.33;;
462;SDS011;218;51.902;9.542;2023-02-04T11:32:29;3.65;;;2.70;;
462;SDS011;218;51.902;9.542;2023-02-04T11:35:05;2.70;;;2.42;;
462;SDS011;218;51.902;9.542;2023-02-04T11:37:34;2.13;;;2.03;;
462;SDS011;218;51.902;9.542;2023-02-04T11:40:10;2.10;;;2.00;;
462;SDS011;218;51.902;9.542;2023-02-04T11:42:46;2.60;;;2.50;;
462;SDS011;218;51.902;9.542;2023-02-04T11:45:15;2.28;;;2.17;;
462;SDS011;218;51.902;9.542;2023-02-04T11:47:43;2.25;;;2.15;;
462;SDS011;218;51.902;9.542;2023-02-04T11:50:20;4.25;;;2.15;;
462;SDS011;218;51.902;9.542;2023-02-04T11:52:49;3.42;;;2.40;;
462;SDS011;218;51.902;9.542;2023-02-04T11:55:16;3.45;;;2.33;;
462;SDS011;218;51.902;9.542;2023-02-04T11:57:44;2.35;;;2.15;;
462;SDS011;218;51.902;9.542;2023-02-04T12:00:12;2.25;;;2.15;;
462;SDS011;218;51.902;9.542;2023-02-04T12:02:43;2.50;;;2.40;;
462;SDS011;218;51.902;9.542;2023-02-04T12:05:11;2.70;;;2.50;;
462;SDS011;218;51.902;9.542;2023-02-04T12:07:39;2.57;;;2.37;;
462;SDS011;218;51.902;9.542;2023-02-04T12:10:11;2.27;;;2.17;;
462;SDS011;218;51.902;9.542;2023-02-04T12:12:40;2.70;;;2.53;;
462;SDS011;218;51.902;9.542;2023-02-04T12:15:12;2.00;;;1.90;;
462;SDS011;218;51.902;9.542;2023-02-04T12:17:42;2.63;;;2.43;;
462;SDS011;218;51.902;9.542;2023-02-04T12:20:10;2.00;;;1.88;;
462;SDS011;218;51.902;9.542;2023-02-04T12:22:37;2.00;;;1.90;;
462;SDS011;218;51.902;9.542;2023-02-04T12:25:05;2.10;;;2.00;;
462;SDS011;218;51.902;9.542;2023-02-04T12:27:32;3.60;;;3.40;;
462;SDS011;218;51.902;9.542;2023-02-04T12:29:59;1.90;;;1.80;;
462;SDS011;218;51.902;9.542;2023-02-04T12:32:27;2.40;;;2.30;;
462;SDS011;218;51.902;9.542;2023-02-04T12:34:55;2.50;;;2.40;;
462;SDS011;218;51.902;9.542;2023-02-04T12:37:22;2.07;;;1.97;;
462;SDS011;218;51.902;9.542;2023-02-04T12:39:49;1.83;;;1.73;;
462;SDS011;218;51.902;9.542;2023-02-04T12:42:17;2.17;;;2.00;;
462;SDS011;218;51.902;9.542;2023-02-04T12:44:44;3.83;;;2.63;;
462;SDS011;218;51.902;9.542;2023-02-04T12:47:11;7.60;;;2.33;;
462;SDS011;218;51.902;9.542;2023-02-04T12:49:38;2.00;;;1.90;;
462;SDS011;218;51.902;9.542;2023-02-04T12:52:07;2.37;;;2.20;;
462;SDS011;218;51.902;9.542;2023-02-04T12:54:34;2.40;;;2.00;;
462;SDS011;218;51.902;9.542;2023-02-04T12:57:01;2.13;;;2.03;;
462;SDS011;218;51.902;9.542;2023-02-04T12:59:28;2.07;;;1.97;;
462;SDS011;218;51.902;9.542;2023-02-04T13:01:56;2.00;;;1.80;;
462;SDS011;218;51.902;9.542;2023-02-04T13:04:23;2.00;;;1.90;;
462;SDS011;218;51.902;9.542;2023-02-04T13:06:50;2.57;;;2.47;;
462;SDS011;218;51.902;9.542;2023-02-04T13:09:19;2.00;;;1.90;;
462;SDS011;218;51.902;9.542;2023-02-04T13:11:46;2.90;;;2.40;;
462;SDS011;218;51.902;9.542;2023-02-04T13:14:13;2.40;;;2.20;;
462;SDS011;218;51.902;9.542;2023-02-04T13:16:40;2.00;;;1.90;;
462;SDS011;218;51.902;9.542;2023-02-04T13:19:07;2.07;;;1.97;;
462;SDS011;218;51.902;9.542;2023-02-04T13:21:35;1.90;;;1.80;;
462;SDS011;218;51.902;9.542;2023-02-04T13:24:02;2.53;;;2.43;;
462;SDS011;218;51.902;9.542;2023-02-04T13:26:31;4.53;;;2.90;;
462;SDS011;218;51.902;9.542;2023-02-04T13:28:58;1.97;;;1.87;;
462;SDS011;218;51.902;9.542;2023-02-04T13:31:25;2.43;;;2.20;;
462;SDS011;218;51.902;9.542;2023-02-04T13:33:52;2.30;;;2.10;;
462;SDS011;218;51.902;9.542;2023-02-04T13:36:19;2.40;;;2.30;;
462;SDS011;218;51.902;9.542;2023-02-04T13:38:46;2.30;;;1.90;;
462;SDS011;218;51.902;9.542;2023-02-04T13:41:13;1.93;;;1.80;;
462;SDS011;218;51.902;9.542;2023-02-04T13:43:41;2.40;;;1.77;;
462;SDS011;218;51.902;9.542;2023-02-04T13:46:08;2.60;;;2.20;;
462;SDS011;218;51.902;9.542;2023-02-04T13:48:36;1.80;;;1.70;;
462;SDS011;218;51.902;9.542;2023-02-04T13:51:03;1.80;;;1.70;;
462;SDS011;218;51.902;9.542;2023-02-04T13:53:30;1.90;;;1.80;;
462;SDS011;218;51.902;9.542;2023-02-04T13:55:58;1.80;;;1.70;;
462;SDS011;218;51.902;9.542;2023-02-04T13:58:25;1.53;;;1.43;;
462;SDS011;218;51.902;9.542;2023-02-04T14:00:54;1.50;;;1.40;;
462;SDS011;218;51.902;9.542;2023-02-04T14:03:21;1.40;;;1.40;;
462;SDS011;218;51.902;9.542;2023-02-04T14:05:49;2.10;;;1.93;;
462;SDS011;218;51.902;9.542;2023-02-04T14:08:16;1.85;;;1.75;;
462;SDS011;218;51.902;9.542;2023-02-04T14:10:44;4.97;;;3.33;;
462;SDS011;218;51.902;9.542;2023-02-04T14:13:11;2.20;;;2.00;;
462;SDS011;218;51.902;9.542;2023-02-04T14:15:38;3.53;;;1.90;;
462;SDS011;218;51.902;9.542;2023-02-04T14:18:07;1.73;;;1.60;;
462;SDS011;218;51.902;9.542;2023-02-04T14:20:35;3.55;;;1.73;;
462;SDS011;218;51.902;9.542;2023-02-04T14:23:03;2.70;;;1.65;;
462;SDS011;218;51.902;9.542;2023-02-04T14:25:31;1.20;;;1.10;;
462;SDS011;218;51.902;9.542;2023-02-04T14:27:59;2.22;;;1.40;;
462;SDS011;218;51.902;9.542;2023-02-04T14:30:27;2.10;;;1.70;;
462;SDS011;218;51.902;9.542;2023-02-04T14:32:54;1.73;;;1.50;;
462;SDS011;218;51.902;9.542;2023-02-04T14:35:23;1.90;;;1.80;;
462;SDS011;218;51.902;9.542;2023-02-04T14:37:51;3.00;;;2.80;;
462;SDS011;218;51.902;9.542;2023-02-04T14:40:18;1.80;;;1.70;;
462;SDS011;218;51.902;9.542;2023-02-04T14:42:46;2.20;;;2.10;;
462;SDS011;218;51.902;9.542;2023-02-04T14:45:13;1.77;;;1.60;;
462;SDS011;218;51.902;9.542;2023-02-04T14:47:41;1.75;;;1.65;;
462;SDS011;218;51.902;9.542;2023-02-04T14:50:09;2.10;;;1.70;;
462;SDS011;218;51.902;9.542;2023-02-04T14:52:40;2.00;;;1.80;;
462;SDS011;218;51.902;9.542;2023-02-04T14:55:07;2.65;;;2.45;;
462;SDS011;218;51.902;9.542;2023-02-04T14:57:36;2.40;;;2.20;;
462;SDS011;218;51.902;9.542;2023-02-04T15:00:04;2.90;;;2.70;;
462;SDS011;218;51.902;9.542;2023-02-04T15:02:31;2.85;;;2.15;;
462;SDS011;218;51.902;9.542;2023-02-04T15:04:58;2.72;;;2.10;;
462;SDS011;218;51.902;9.542;2023-02-04T15:07:25;1.83;;;1.73;;
462;SDS011;218;51.902;9.542;2023-02-04T15:09:54;4.10;;;3.22;;
462;SDS011;218;51.902;9.542;2023-02-04T15:12:21;3.00;;;2.65;;
462;SDS011;218;51.902;9.542;2023-02-04T15:14:47;3.85;;;2.80;;
462;SDS011;218;51.902;9.542;2023-02-04T15:17:14;3.40;;;3.05;;
462;SDS011;218;51.902;9.542;2023-02-04T15:19:42;3.20;;;2.90;;
462;SDS011;218;51.902;9.542;2023-02-04T15:22:10;2.45;;;2.25;;
462;SDS011;218;51.902;9.542;2023-02-04T15:24:37;1.85;;;1.42;;
462;SDS011;218;51.902;9.542;2023-02-04T15:27:06;2.10;;;1.90;;
462;SDS011;218;51.902;9.542;2023-02-04T15:29:33;1.80;;;1.70;;
462;SDS011;218;51.902;9.542;2023-02-04T15:32:00;1.95;;;1.77;;
462;SDS011;218;51.902;9.542;2023-02-04T15:34:27;2.20;;;2.00;;
462;SDS011;218;51.902;9.542;2023-02-04T15:36:54;2.85;;;2.65;;
462;SDS011;218;51.902;9.542;2023-02-04T15:39:21;4.18;;;3.50;;
462;SDS011;218;51.902;9.542;2023-02-04T15:41:48;2.53;;;2.42;;
462;SDS011;218;51.902;9.542;2023-02-04T15:44:17;2.00;;;1.90;;
462;SDS011;218;51.902;9.542;2023-02-04T15:46:45;1.73;;;1.63;;